Gerald R. Ford International Airport
KGRR : now visible

Airfield :











YOU CAN JOIN US ON...

 
LOGIN :

Register | Disclaimer

   EN    FR    IT 

 









Legend :    VFR   Marginal VFR   IFR   Intensive IFR   Very Intensive IFR
Visi :
Ceiling :
>= 8 km
>= 3000ft
5 to 8 km
1000 to 3000 ft
1500m to 5 km
500 to 1000 ft
800 to 1500m
200 to 500 ft
< 800m
< 200 ft
Symbols :   Thunderstorms  Fog  Heavy snow  Heavy precipitations  Wind > 20 kt






- Airport Elevation : 794 ft
- IATA code : GRR


KGRR - Gerald R. Ford International

CURRENT METAR :
  • 122053Z 18013G23KT 10SM OVC110 03/M04 A3014 RMK AO2 PK WND 18027/2039 SLP218 T00281044 56037

EXPIRED METARs :
  • 121953Z 18015G25KT 10SM FEW080 OVC100 02/M04 A3017 RMK AO2 PK WND 17028/1938 SLP228 T00221044
  • 121853Z 17014KT 10SM SCT080 OVC110 02/M04 A3021 RMK AO2 SLP243 T00171044

TAF KGRR
Valid from the 12 at 18:00 until the 13 at 18:00 UTC


121759Z 1218/1318 17015KT P6SM OVC120 WS020/20040KT
FM122100 18016KT P6SM BKN090 WS020/21045KT
FM130500 20010KT P6SM BKN050
FM131400 19006KT P6SM OVC050
FM131700 18005KT P6SM OVC030



MET'MAP, your aeronautical weather chart ! - Copyright ORBIFLY December 2007 - Disclaimer

ORBIFLY MET'MAP TEAM :

Programming & Development : Alexandra Zaïnal
Concept & original design : Baudouin d'Aumeries
Assistance for programming : Marc-Olivier Méhu
Technical & hardware support : Manuel Goepfert

Contact : metmap@orbifly.com




SOURCES & CREDITS :

   NOAA       Earth
Advisory